createdAt,value
2017-10-17T00:00:58.849Z,85.10
2017-10-17T00:03:26.317Z,85.30
2017-10-17T00:05:53.796Z,85.60
2017-10-17T00:08:21.266Z,85.70
2017-10-17T00:10:49.508Z,85.60
2017-10-17T00:13:17.016Z,85.60
2017-10-17T00:15:44.497Z,85.30
2017-10-17T00:18:12.008Z,85.40
2017-10-17T00:20:39.468Z,85.30
2017-10-17T00:23:07.715Z,85.00
2017-10-17T00:25:35.941Z,85.00
2017-10-17T00:28:03.489Z,85.00
2017-10-17T00:30:33.857Z,85.10
2017-10-17T00:33:16.229Z,85.30
2017-10-17T00:35:47.342Z,85.40
2017-10-17T00:38:15.597Z,85.30
2017-10-17T00:40:43.077Z,85.40
2017-10-17T00:46:07.749Z,85.30
2017-10-17T00:48:35.331Z,85.50
2017-10-17T00:51:05.688Z,85.60
2017-10-17T00:53:33.144Z,85.50
2017-10-17T00:56:01.027Z,85.60
2017-10-17T00:58:29.429Z,85.00
2017-10-17T01:00:57.085Z,85.20
2017-10-17T01:03:25.492Z,85.00
2017-10-17T01:05:53.752Z,85.10
2017-10-17T01:08:21.225Z,85.00
2017-10-17T01:10:48.719Z,85.20
2017-10-17T01:13:16.177Z,85.20
2017-10-17T01:15:43.657Z,85.10
2017-10-17T01:18:11.125Z,85.00
2017-10-17T01:20:38.614Z,85.10
2017-10-17T01:23:17.000Z,85.20
2017-10-17T01:25:44.490Z,85.10
2017-10-17T01:28:13.671Z,84.60
2017-10-17T01:30:41.149Z,85.00
2017-10-17T01:33:09.409Z,85.10
2017-10-17T01:35:38.394Z,85.00
2017-10-17T01:38:07.540Z,85.00
2017-10-17T01:40:35.022Z,85.00
2017-10-17T01:43:03.215Z,85.40
2017-10-17T01:45:32.229Z,85.40
2017-10-17T01:48:07.205Z,85.00
2017-10-17T01:50:34.682Z,85.50
2017-10-17T01:53:08.792Z,85.30
2017-10-17T01:55:36.256Z,85.20
2017-10-17T01:58:19.401Z,85.50
2017-10-17T02:00:47.632Z,85.90
2017-10-17T02:03:15.152Z,86.60
2017-10-17T02:05:42.648Z,85.80
2017-10-17T02:08:10.854Z,85.70
2017-10-17T02:10:38.331Z,85.60
2017-10-17T02:13:05.818Z,85.40
2017-10-17T02:15:33.279Z,86.50
2017-10-17T02:18:02.419Z,86.10
2017-10-17T02:20:29.877Z,86.30
2017-10-17T02:22:57.344Z,86.30
2017-10-17T02:28:24.951Z,85.60
2017-10-17T02:30:53.331Z,85.80
2017-10-17T02:33:22.616Z,85.40
2017-10-17T02:35:50.080Z,85.30
2017-10-17T02:38:18.333Z,85.80
2017-10-17T02:40:45.803Z,85.80
2017-10-17T02:46:08.353Z,86.10
2017-10-17T02:48:36.621Z,86.50
2017-10-17T02:51:04.082Z,86.80
2017-10-17T02:53:31.557Z,86.80
2017-10-17T02:55:59.028Z,86.20
2017-10-17T02:58:27.264Z,86.20
2017-10-17T03:00:54.733Z,86.10
2017-10-17T03:03:26.588Z,86.30
2017-10-17T03:05:54.058Z,86.10
2017-10-17T03:08:21.545Z,86.30
2017-10-17T03:10:49.017Z,86.10
2017-10-17T03:13:19.376Z,86.10
2017-10-17T03:15:49.670Z,86.70
2017-10-17T03:18:17.297Z,86.90
2017-10-17T03:20:45.557Z,87.10
2017-10-17T03:23:14.691Z,87.10
2017-10-17T03:25:42.181Z,87.50
2017-10-17T03:28:18.396Z,87.40
2017-10-17T03:30:49.515Z,87.30
2017-10-17T03:33:35.580Z,87.60
2017-10-17T03:36:05.564Z,87.60
2017-10-17T03:41:33.942Z,87.00
2017-10-17T03:44:22.878Z,87.90
2017-10-17T03:46:50.386Z,88.60
2017-10-17T03:49:23.836Z,88.10
2017-10-17T03:51:51.321Z,88.00
2017-10-17T03:54:18.786Z,87.70
2017-10-17T03:56:46.858Z,87.90
2017-10-17T03:59:15.108Z,87.70
2017-10-17T04:01:43.456Z,87.20
2017-10-17T04:04:11.852Z,87.20
2017-10-17T04:06:51.103Z,87.90
2017-10-17T04:09:19.343Z,87.20
2017-10-17T04:11:46.801Z,87.20
2017-10-17T04:14:17.374Z,87.30
2017-10-17T04:19:52.801Z,87.10
2017-10-17T04:25:29.670Z,86.70
2017-10-17T04:28:04.056Z,87.20
2017-10-17T04:30:43.544Z,87.10
2017-10-17T04:33:21.679Z,87.70
2017-10-17T04:36:04.809Z,88.20
2017-10-17T04:38:33.084Z,88.20
2017-10-17T04:41:01.346Z,87.80
2017-10-17T04:43:39.677Z,87.80
2017-10-17T04:46:17.091Z,87.60
2017-10-17T04:49:07.361Z,87.60
2017-10-17T04:51:51.548Z,87.80
2017-10-17T04:54:23.974Z,87.70
2017-10-17T04:57:01.837Z,87.80
2017-10-17T04:59:32.292Z,87.70
2017-10-17T05:02:07.588Z,87.60
2017-10-17T05:07:44.491Z,87.40
2017-10-17T05:10:19.972Z,87.60
2017-10-17T05:12:55.069Z,87.60
2017-10-17T05:15:22.570Z,87.60
2017-10-17T05:17:56.261Z,87.90
2017-10-17T05:20:24.615Z,87.80
2017-10-17T05:22:52.099Z,87.80
2017-10-17T05:25:26.153Z,88.00
2017-10-17T05:28:05.635Z,88.80
2017-10-17T05:30:51.573Z,88.00
2017-10-17T05:33:44.010Z,88.00
2017-10-17T05:36:16.352Z,88.10
2017-10-17T05:38:43.840Z,88.10
2017-10-17T05:41:11.326Z,88.20
2017-10-17T05:46:50.697Z,88.60
2017-10-17T05:49:22.017Z,88.60
2017-10-17T05:51:49.485Z,88.70
2017-10-17T05:54:16.974Z,88.60
2017-10-17T05:56:44.499Z,88.90
2017-10-17T05:59:11.981Z,89.00
2017-10-17T06:01:39.451Z,88.80
2017-10-17T06:04:06.945Z,88.70
2017-10-17T06:06:34.425Z,88.80
2017-10-17T06:09:01.917Z,88.40
2017-10-17T06:11:29.381Z,88.60
2017-10-17T06:13:56.896Z,88.20
2017-10-17T06:16:24.382Z,88.40
2017-10-17T06:18:51.853Z,89.10
2017-10-17T06:21:19.339Z,89.50
2017-10-17T06:23:46.805Z,89.20
2017-10-17T06:26:14.285Z,89.30
2017-10-17T06:28:42.262Z,89.20
2017-10-17T06:31:09.755Z,89.10
2017-10-17T06:33:37.230Z,89.20
2017-10-17T06:36:05.492Z,88.70
2017-10-17T06:38:33.750Z,89.30
2017-10-17T06:41:01.230Z,89.00
2017-10-17T06:43:29.583Z,89.50
2017-10-17T06:45:58.462Z,89.60
2017-10-17T06:48:26.272Z,89.60
2017-10-17T06:50:54.043Z,89.70
2017-10-17T06:53:21.533Z,90.10
2017-10-17T06:55:49.095Z,90.10
2017-10-17T06:58:16.587Z,90.30
2017-10-17T07:00:44.053Z,90.50
2017-10-17T07:03:12.426Z,90.70
2017-10-17T07:05:39.907Z,90.60
2017-10-17T07:08:07.390Z,90.80
2017-10-17T07:10:34.853Z,90.90
2017-10-17T07:13:02.340Z,90.80
2017-10-17T07:15:29.871Z,90.90
2017-10-17T07:17:57.372Z,90.70
2017-10-17T07:20:25.658Z,90.40
2017-10-17T07:22:53.914Z,90.50
2017-10-17T07:25:22.293Z,90.60
2017-10-17T07:27:49.756Z,90.60
2017-10-17T07:30:18.009Z,90.10
2017-10-17T07:32:45.489Z,90.30
2017-10-17T07:35:13.734Z,90.00
2017-10-17T07:37:41.207Z,90.00
2017-10-17T07:40:09.425Z,90.20
2017-10-17T07:42:36.906Z,90.30
2017-10-17T07:45:04.378Z,90.30
2017-10-17T07:47:31.863Z,90.40
2017-10-17T07:49:59.345Z,90.40
2017-10-17T07:52:26.821Z,90.40
2017-10-17T07:54:54.283Z,90.30
2017-10-17T07:57:21.772Z,90.30
2017-10-17T07:59:49.401Z,90.10
2017-10-17T08:02:16.881Z,90.10
2017-10-17T08:04:44.336Z,90.20
2017-10-17T08:07:11.823Z,90.30
2017-10-17T08:09:39.305Z,90.40
2017-10-17T08:12:06.784Z,90.40
2017-10-17T08:14:34.244Z,90.40
2017-10-17T08:17:01.713Z,90.60
2017-10-17T08:19:29.189Z,90.70
2017-10-17T08:21:56.675Z,90.70
2017-10-17T08:24:24.934Z,90.70
2017-10-17T08:26:52.397Z,90.70
2017-10-17T08:29:19.891Z,90.70
2017-10-17T08:31:47.357Z,90.70
2017-10-17T08:34:14.837Z,90.60
2017-10-17T08:36:42.482Z,90.90
2017-10-17T08:39:09.969Z,90.30
2017-10-17T08:41:37.446Z,90.10
2017-10-17T08:44:04.900Z,90.10
2017-10-17T08:46:33.152Z,90.20
2017-10-17T08:49:00.628Z,90.10
2017-10-17T08:51:28.130Z,90.10
2017-10-17T08:53:55.603Z,90.10
2017-10-17T08:56:23.099Z,90.20
2017-10-17T08:58:50.561Z,90.00
2017-10-17T09:01:18.039Z,90.10
2017-10-17T09:03:46.265Z,90.00
2017-10-17T09:08:48.359Z,90.10
2017-10-17T09:11:15.850Z,90.10
2017-10-17T09:13:44.100Z,90.00
2017-10-17T09:16:11.581Z,90.00
2017-10-17T09:18:39.843Z,89.30
2017-10-17T09:21:07.381Z,89.30
2017-10-17T09:23:34.866Z,89.50
2017-10-17T09:26:03.718Z,89.30
2017-10-17T09:28:31.204Z,89.20
2017-10-17T09:30:59.433Z,88.90
2017-10-17T09:33:26.926Z,89.40
2017-10-17T09:35:54.401Z,88.10
2017-10-17T09:38:22.682Z,87.50
2017-10-17T09:40:50.937Z,87.60
2017-10-17T09:43:18.403Z,87.50
2017-10-17T09:45:47.530Z,87.00
2017-10-17T09:48:14.996Z,87.00
2017-10-17T09:50:42.711Z,87.30
2017-10-17T09:53:10.177Z,86.70
2017-10-17T09:55:38.437Z,87.00
2017-10-17T09:58:05.902Z,86.80
2017-10-17T10:00:33.369Z,86.80
2017-10-17T10:03:01.625Z,87.50
2017-10-17T10:05:29.135Z,87.20
2017-10-17T10:07:56.654Z,87.30
2017-10-17T10:10:24.274Z,87.50
2017-10-17T10:12:51.822Z,87.30
2017-10-17T10:15:19.369Z,87.70
2017-10-17T10:17:46.881Z,87.70
2017-10-17T10:20:14.357Z,87.20
2017-10-17T10:22:42.612Z,87.20
2017-10-17T10:25:10.069Z,87.20
2017-10-17T10:27:37.558Z,86.70
2017-10-17T10:30:05.042Z,87.30
2017-10-17T10:32:32.535Z,86.70
2017-10-17T10:34:59.998Z,86.30
2017-10-17T10:37:27.485Z,86.30
2017-10-17T10:39:54.971Z,86.60
2017-10-17T10:42:27.957Z,86.50
2017-10-17T10:44:55.425Z,86.20
2017-10-17T10:47:22.881Z,86.00
2017-10-17T10:49:50.375Z,86.00
2017-10-17T10:52:17.981Z,85.70
2017-10-17T10:54:45.461Z,85.90
2017-10-17T10:57:13.039Z,85.70
2017-10-17T10:59:40.525Z,85.30
2017-10-17T11:02:08.774Z,85.90
2017-10-17T11:04:36.232Z,85.90
2017-10-17T11:07:03.726Z,85.80
2017-10-17T11:09:31.195Z,85.30
2017-10-17T11:11:58.705Z,85.20
2017-10-17T11:14:26.180Z,84.70
2017-10-17T11:16:54.445Z,84.10
2017-10-17T11:19:22.145Z,84.10
2017-10-17T11:21:49.614Z,84.00
2017-10-17T11:24:17.835Z,83.60
2017-10-17T11:26:45.318Z,84.60
2017-10-17T11:29:12.802Z,83.60
2017-10-17T11:31:40.362Z,83.80
2017-10-17T11:34:07.833Z,83.40
2017-10-17T11:36:35.296Z,83.10
2017-10-17T11:39:02.790Z,83.60
2017-10-17T11:41:42.142Z,82.80
2017-10-17T11:44:12.666Z,83.10
2017-10-17T11:46:40.160Z,83.10
2017-10-17T11:49:07.722Z,82.90
2017-10-17T11:51:35.202Z,82.50
2017-10-17T11:54:02.741Z,82.40
2017-10-17T11:56:30.306Z,83.10
2017-10-17T11:58:57.778Z,82.60
2017-10-17T12:01:26.901Z,82.00
2017-10-17T12:03:55.147Z,82.20
2017-10-17T12:06:22.634Z,82.20
2017-10-17T12:08:50.860Z,82.30
2017-10-17T12:11:18.341Z,82.30
2017-10-17T12:13:45.798Z,82.70
2017-10-17T12:16:13.290Z,82.70
2017-10-17T12:18:40.994Z,82.10
2017-10-17T12:21:08.472Z,81.30
2017-10-17T12:23:35.975Z,81.40
2017-10-17T12:26:03.493Z,81.70
2017-10-17T12:28:30.997Z,81.50
2017-10-17T12:30:58.482Z,81.60
2017-10-17T12:33:25.962Z,81.80
2017-10-17T12:35:53.425Z,82.40
2017-10-17T12:38:20.916Z,82.70
2017-10-17T12:40:48.499Z,82.80
2017-10-17T12:43:15.962Z,83.30
2017-10-17T12:45:43.453Z,83.00
2017-10-17T12:48:10.950Z,82.70
2017-10-17T12:50:38.433Z,81.90
2017-10-17T12:53:05.897Z,82.00
2017-10-17T12:55:33.446Z,81.40
2017-10-17T12:58:00.947Z,81.00
2017-10-17T13:00:28.421Z,81.40
2017-10-17T13:02:56.677Z,80.30
2017-10-17T13:05:24.161Z,80.30
2017-10-17T13:07:52.481Z,79.30
2017-10-17T13:10:19.933Z,79.30
2017-10-17T13:12:47.551Z,79.70
2017-10-17T13:15:15.808Z,79.00
2017-10-17T13:17:43.281Z,79.00
2017-10-17T13:20:11.539Z,78.40
2017-10-17T13:22:39.015Z,78.40
2017-10-17T13:25:06.501Z,78.50
2017-10-17T13:27:33.957Z,78.90
2017-10-17T13:30:01.444Z,78.90
2017-10-17T13:32:28.898Z,79.60
2017-10-17T13:34:56.382Z,79.30
2017-10-17T13:39:58.469Z,79.20
2017-10-17T13:42:26.721Z,78.60
2017-10-17T13:44:54.222Z,78.60
2017-10-17T13:47:21.704Z,78.60
2017-10-17T13:49:49.177Z,79.10
2017-10-17T13:52:16.664Z,79.20
2017-10-17T13:54:44.138Z,79.00
2017-10-17T13:57:12.378Z,78.90
2017-10-17T13:59:39.986Z,78.80
2017-10-17T14:02:07.461Z,79.10
2017-10-17T14:04:35.057Z,78.50
2017-10-17T14:07:02.582Z,79.00
2017-10-17T14:09:30.056Z,78.90
2017-10-17T14:11:57.520Z,79.10
2017-10-17T14:14:25.002Z,79.00
2017-10-17T14:16:52.490Z,79.70
2017-10-17T14:19:19.966Z,79.40
2017-10-17T14:21:47.517Z,79.80
2017-10-17T14:24:15.054Z,79.30
2017-10-17T14:26:42.540Z,79.80
2017-10-17T14:29:10.029Z,79.60
2017-10-17T14:31:37.509Z,79.60
2017-10-17T14:34:05.069Z,79.90
2017-10-17T14:36:32.566Z,80.00
2017-10-17T14:39:00.039Z,80.30
2017-10-17T14:41:27.557Z,80.60
2017-10-17T14:43:55.049Z,80.40
2017-10-17T14:46:22.528Z,80.60
2017-10-17T14:48:50.007Z,80.10
2017-10-17T14:51:18.077Z,80.10
2017-10-17T14:53:45.542Z,80.80
2017-10-17T14:56:13.806Z,82.00
2017-10-17T14:58:42.188Z,81.70
2017-10-17T15:01:09.657Z,81.60
2017-10-17T15:03:37.888Z,82.50
2017-10-17T15:06:05.361Z,82.50
2017-10-17T15:08:32.853Z,82.90
2017-10-17T15:11:01.092Z,83.60
2017-10-17T15:13:28.577Z,83.60
2017-10-17T15:15:56.813Z,84.40
2017-10-17T15:18:24.295Z,84.30
2017-10-17T15:20:51.765Z,84.50
2017-10-17T15:23:20.027Z,85.10
2017-10-17T15:25:47.668Z,85.10
2017-10-17T15:28:15.137Z,85.30
2017-10-17T15:30:42.625Z,85.60
2017-10-17T15:33:10.874Z,86.10
2017-10-17T15:35:38.359Z,86.10
2017-10-17T15:38:06.616Z,86.10
2017-10-17T15:40:34.840Z,86.40
2017-10-17T15:43:02.322Z,86.30
2017-10-17T15:45:29.845Z,86.20
2017-10-17T15:47:57.341Z,86.30
2017-10-17T15:50:24.837Z,86.30
2017-10-17T15:52:53.068Z,87.00
2017-10-17T15:55:20.565Z,86.90
2017-10-17T15:57:48.812Z,86.90
2017-10-17T16:00:16.280Z,86.80
2017-10-17T16:02:43.767Z,87.20
2017-10-17T16:05:11.243Z,88.20
2017-10-17T16:07:38.730Z,87.40
2017-10-17T16:10:06.271Z,88.40
2017-10-17T16:12:33.764Z,87.90
2017-10-17T16:15:01.425Z,87.90
2017-10-17T16:17:29.679Z,88.00
2017-10-17T16:19:57.161Z,88.10
2017-10-17T16:22:24.658Z,88.10
2017-10-17T16:24:52.131Z,88.50
2017-10-17T16:27:19.595Z,88.70
2017-10-17T16:29:47.148Z,88.80
2017-10-17T16:32:14.601Z,89.30
2017-10-17T16:34:42.099Z,89.00
2017-10-17T16:37:09.604Z,89.20
2017-10-17T16:39:37.135Z,89.30
2017-10-17T16:42:05.385Z,90.00
2017-10-17T16:44:32.870Z,90.00
2017-10-17T16:47:01.123Z,90.20
2017-10-17T16:49:29.367Z,90.30
2017-10-17T16:51:56.864Z,90.00
2017-10-17T16:54:24.337Z,90.20
2017-10-17T16:56:52.582Z,89.50
2017-10-17T16:59:20.131Z,89.40
2017-10-17T17:01:47.629Z,89.90
2017-10-17T17:04:15.865Z,90.00
2017-10-17T17:06:43.418Z,90.00
2017-10-17T17:09:10.880Z,90.10
2017-10-17T17:11:38.464Z,90.10
2017-10-17T17:14:05.964Z,90.40
2017-10-17T17:16:33.445Z,90.30
2017-10-17T17:19:00.941Z,90.50
2017-10-17T17:21:29.297Z,90.40
2017-10-17T17:23:57.601Z,90.50
2017-10-17T17:26:25.906Z,90.40
2017-10-17T17:28:53.377Z,90.40
2017-10-17T17:31:20.894Z,90.30
2017-10-17T17:33:49.149Z,90.10
2017-10-17T17:36:16.645Z,90.10
2017-10-17T17:38:44.771Z,90.50
2017-10-17T17:41:12.233Z,90.20
2017-10-17T17:43:39.756Z,90.40
2017-10-17T17:46:07.245Z,90.60
2017-10-17T17:48:34.763Z,91.20
2017-10-17T17:51:02.266Z,91.30
2017-10-17T17:53:29.771Z,90.90
2017-10-17T17:55:57.258Z,91.10
2017-10-17T17:58:24.745Z,90.90
2017-10-17T18:00:53.021Z,90.80
2017-10-17T18:03:21.452Z,90.60
2017-10-17T18:05:49.064Z,90.60
2017-10-17T18:08:17.445Z,90.70
2017-10-17T18:10:45.696Z,90.90
2017-10-17T18:13:14.903Z,90.70
2017-10-17T18:15:42.364Z,90.70
2017-10-17T18:18:09.852Z,90.70
2017-10-17T18:20:38.098Z,90.70
2017-10-17T18:23:05.593Z,90.70
2017-10-17T18:25:33.079Z,90.60
2017-10-17T18:28:00.601Z,90.50
2017-10-17T18:30:28.105Z,90.50
2017-10-17T18:32:55.599Z,90.40
2017-10-17T18:35:23.894Z,90.70
2017-10-17T18:37:51.410Z,90.70
2017-10-17T18:40:19.355Z,90.70
2017-10-17T18:42:46.861Z,90.90
2017-10-17T18:45:14.368Z,90.70
2017-10-17T18:47:41.858Z,90.60
2017-10-17T18:50:10.841Z,90.70
2017-10-17T18:52:38.306Z,90.70
2017-10-17T18:55:05.795Z,90.60
2017-10-17T18:57:33.292Z,90.90
2017-10-17T19:00:00.864Z,90.70
2017-10-17T19:02:28.351Z,90.80
2017-10-17T19:04:56.646Z,90.60
2017-10-17T19:07:24.119Z,90.60
2017-10-17T19:09:51.604Z,90.50
2017-10-17T19:12:20.018Z,90.50
2017-10-17T19:14:48.270Z,90.80
2017-10-17T19:17:17.286Z,90.90
2017-10-17T19:19:45.553Z,90.80
2017-10-17T19:22:13.053Z,90.80
2017-10-17T19:24:40.736Z,90.60
2017-10-17T19:27:08.371Z,90.60
2017-10-17T19:29:35.883Z,90.60
2017-10-17T19:32:03.378Z,90.70
2017-10-17T19:34:30.893Z,90.70
2017-10-17T19:36:58.529Z,90.50
2017-10-17T19:39:26.032Z,90.80
2017-10-17T19:41:53.503Z,90.90
2017-10-17T19:44:22.521Z,91.00
2017-10-17T19:46:50.080Z,91.00
2017-10-17T19:49:17.684Z,91.10
2017-10-17T19:51:45.181Z,91.40
2017-10-17T19:54:12.689Z,91.20
2017-10-17T19:56:40.176Z,91.20
2017-10-17T19:59:08.413Z,91.50
2017-10-17T20:01:35.902Z,91.50
2017-10-17T20:04:04.295Z,91.50
2017-10-17T20:06:32.581Z,91.30
2017-10-17T20:09:00.168Z,91.30
2017-10-17T20:11:27.885Z,91.50
2017-10-17T20:13:56.119Z,91.80
2017-10-17T20:16:23.616Z,91.80
2017-10-17T20:18:51.103Z,91.70
2017-10-17T20:21:19.081Z,91.40
2017-10-17T20:23:46.570Z,91.30
2017-10-17T20:26:14.366Z,91.30
2017-10-17T20:28:42.616Z,91.40
2017-10-17T20:31:10.273Z,91.50
2017-10-17T20:33:37.757Z,91.70
2017-10-17T20:36:06.062Z,91.60
2017-10-17T20:38:33.567Z,91.20
2017-10-17T20:41:01.033Z,91.20
2017-10-17T20:43:28.530Z,91.10
2017-10-17T20:45:56.016Z,91.00
2017-10-17T20:48:23.691Z,91.20
2017-10-17T20:50:51.192Z,91.20
2017-10-17T20:53:19.461Z,91.50
2017-10-17T20:55:47.696Z,91.50
2017-10-17T20:58:15.273Z,91.40
2017-10-17T21:00:42.749Z,91.30
2017-10-17T21:03:11.011Z,91.10
2017-10-17T21:05:38.581Z,91.10
2017-10-17T21:08:06.894Z,91.30
2017-10-17T21:10:34.366Z,91.20
2017-10-17T21:13:01.825Z,91.10
2017-10-17T21:15:29.339Z,91.40
2017-10-17T21:17:57.583Z,91.20
2017-10-17T21:20:25.182Z,91.20
2017-10-17T21:22:52.833Z,91.20
2017-10-17T21:25:21.116Z,90.80
2017-10-17T21:27:49.389Z,90.80
2017-10-17T21:30:16.987Z,90.80
2017-10-17T21:32:44.594Z,90.80
2017-10-17T21:35:12.850Z,91.10
2017-10-17T21:37:40.331Z,90.80
2017-10-17T21:40:08.666Z,90.90
2017-10-17T21:42:36.154Z,90.80
2017-10-17T21:45:03.628Z,90.80
2017-10-17T21:47:31.872Z,91.10
2017-10-17T21:49:59.360Z,91.00
2017-10-17T21:52:27.618Z,91.30
2017-10-17T21:54:55.085Z,91.30
2017-10-17T21:57:23.417Z,91.10
2017-10-17T21:59:50.887Z,91.10
2017-10-17T22:02:18.458Z,91.10
2017-10-17T22:04:47.433Z,90.60
2017-10-17T22:07:15.078Z,90.60
2017-10-17T22:09:42.553Z,91.00
2017-10-17T22:12:10.035Z,90.70
2017-10-17T22:14:37.531Z,90.90
2017-10-17T22:17:05.009Z,90.80
2017-10-17T22:19:32.493Z,90.70
2017-10-17T22:21:59.982Z,90.70
2017-10-17T22:24:28.221Z,91.20
2017-10-17T22:26:55.801Z,91.20
2017-10-17T22:29:23.284Z,91.10
2017-10-17T22:31:50.769Z,90.80
2017-10-17T22:34:18.244Z,90.70
2017-10-17T22:36:45.733Z,90.70
2017-10-17T22:39:13.966Z,90.50
2017-10-17T22:41:41.454Z,90.30
2017-10-17T22:44:10.428Z,90.30
2017-10-17T22:46:37.911Z,90.30
2017-10-17T22:49:05.400Z,90.50
2017-10-17T22:51:32.907Z,90.50
2017-10-17T22:54:00.393Z,90.60
2017-10-17T22:56:27.886Z,90.90
2017-10-17T22:58:55.365Z,91.20
2017-10-17T23:01:22.832Z,91.30
2017-10-17T23:03:50.329Z,91.10
2017-10-17T23:06:18.565Z,91.10
2017-10-17T23:08:46.160Z,91.00
2017-10-17T23:11:14.447Z,91.70
2017-10-17T23:13:41.941Z,91.70
2017-10-17T23:16:09.421Z,91.80
2017-10-17T23:18:48.741Z,92.00
2017-10-17T23:21:16.224Z,91.60
2017-10-17T23:23:43.888Z,91.20
2017-10-17T23:26:11.351Z,91.10
2017-10-17T23:28:38.805Z,90.70
2017-10-17T23:31:07.065Z,91.00
2017-10-17T23:33:34.543Z,90.90
2017-10-17T23:36:02.801Z,91.30
2017-10-17T23:38:30.776Z,91.60
2017-10-17T23:40:58.255Z,91.10
2017-10-17T23:43:26.568Z,90.50
2017-10-17T23:45:54.035Z,90.50
2017-10-17T23:48:21.527Z,90.50
2017-10-17T23:50:49.005Z,90.30
2017-10-17T23:53:17.270Z,90.60
2017-10-17T23:55:45.685Z,90.70
2017-10-17T23:58:13.172Z,90.70
